createdAt,value
2023-03-02T00:00:16.156Z,102166.09
2023-03-02T00:04:45.099Z,102178.25
2023-03-02T00:09:00.745Z,102168.31
2023-03-02T00:13:13.827Z,102151.41
2023-03-02T00:17:28.069Z,102160.31
2023-03-02T00:21:41.072Z,102167.81
2023-03-02T00:25:53.055Z,102165.59
2023-03-02T00:30:06.224Z,102160.94
2023-03-02T00:34:17.909Z,102160.09
2023-03-02T00:38:29.789Z,102159.66
2023-03-02T00:42:41.476Z,102143.34
2023-03-02T00:46:53.224Z,102157.13
2023-03-02T00:51:05.570Z,102148.66
2023-03-02T00:55:17.330Z,102142.50
2023-03-02T00:59:29.064Z,102140.53
2023-03-02T01:03:47.997Z,102137.19
2023-03-02T01:08:00.126Z,102145.31
2023-03-02T01:12:12.303Z,102129.94
2023-03-02T01:16:23.972Z,102143.25
2023-03-02T01:20:35.732Z,102134.56
2023-03-02T01:24:47.464Z,102140.59
2023-03-02T01:28:59.141Z,102140.47
2023-03-02T01:33:10.818Z,102129.53
2023-03-02T01:37:23.131Z,102132.78
2023-03-02T01:41:34.894Z,102144.09
2023-03-02T01:45:46.527Z,102139.88
2023-03-02T01:50:06.831Z,102138.19
2023-03-02T01:54:23.570Z,102131.94
2023-03-02T01:58:41.824Z,102133.41
2023-03-02T02:03:08.739Z,102129.94
2023-03-02T02:07:20.569Z,102119.50
2023-03-02T02:11:32.351Z,102098.69
2023-03-02T02:15:44.375Z,102108.44
2023-03-02T02:20:12.648Z,102105.94
2023-03-02T02:24:41.441Z,102114.84
2023-03-02T02:29:22.696Z,102115.44
2023-03-02T02:33:37.182Z,102113.41
2023-03-02T02:37:56.336Z,102107.00
2023-03-02T02:42:14.890Z,102105.31
2023-03-02T02:46:26.838Z,102106.66
2023-03-02T02:50:44.618Z,102107.53
2023-03-02T02:54:58.868Z,102097.03
2023-03-02T02:59:19.587Z,102093.03
2023-03-02T03:03:35.242Z,102088.09
2023-03-02T03:07:50.457Z,102095.44
2023-03-02T03:12:17.829Z,102093.56
2023-03-02T03:16:31.997Z,102077.53
2023-03-02T03:20:45.392Z,102082.69
2023-03-02T03:24:58.564Z,102080.69
2023-03-02T03:29:11.029Z,102076.44
2023-03-02T03:33:23.384Z,102082.31
2023-03-02T03:37:35.839Z,102081.75
2023-03-02T03:41:47.532Z,102086.50
2023-03-02T03:45:59.571Z,102083.25
2023-03-02T03:50:11.898Z,102079.06
2023-03-02T03:54:24.887Z,102084.00
2023-03-02T03:58:36.793Z,102065.78
2023-03-02T04:02:48.589Z,102071.56
2023-03-02T04:07:00.863Z,102067.59
2023-03-02T04:11:13.467Z,102079.84
2023-03-02T04:15:25.360Z,102080.94
2023-03-02T04:19:37.499Z,102086.50
2023-03-02T04:23:49.742Z,102095.59
2023-03-02T04:28:01.477Z,102101.00
2023-03-02T04:32:18.035Z,102086.03
2023-03-02T04:36:37.815Z,102114.84
2023-03-02T04:40:51.842Z,102091.81
2023-03-02T04:45:03.630Z,102091.81
2023-03-02T04:49:17.186Z,102095.13
2023-03-02T04:53:28.821Z,102090.97
2023-03-02T04:57:40.504Z,102082.31
2023-03-02T05:01:54.642Z,102089.84
2023-03-02T05:06:06.359Z,102100.41
2023-03-02T05:10:19.619Z,102095.97
2023-03-02T05:14:31.455Z,102078.69
2023-03-02T05:18:43.281Z,102076.56
2023-03-02T05:22:56.028Z,102084.22
2023-03-02T05:27:07.683Z,102075.00
2023-03-02T05:31:23.289Z,102083.75
2023-03-02T05:35:35.822Z,102086.03
2023-03-02T05:39:47.509Z,102083.03
2023-03-02T05:43:59.139Z,102078.00
2023-03-02T05:48:12.523Z,102072.16
2023-03-02T05:52:24.199Z,102075.28
2023-03-02T05:56:35.990Z,102078.03
2023-03-02T06:00:48.657Z,102076.72
2023-03-02T06:05:00.245Z,102088.50
2023-03-02T06:09:11.847Z,102085.00
2023-03-02T06:13:23.446Z,102088.25
2023-03-02T06:17:35.106Z,102091.75
2023-03-02T06:21:46.764Z,102097.03
2023-03-02T06:25:59.046Z,102107.34
2023-03-02T06:30:16.054Z,102109.41
2023-03-02T06:34:29.446Z,102114.69
2023-03-02T06:38:41.071Z,102116.69
2023-03-02T06:42:52.758Z,102113.69
2023-03-02T06:47:04.389Z,102104.66
2023-03-02T06:51:16.026Z,102123.25
2023-03-02T06:55:27.933Z,102120.50
2023-03-02T06:59:39.609Z,102141.50
2023-03-02T07:03:51.457Z,102129.44
2023-03-02T07:08:03.514Z,102133.16
2023-03-02T07:12:15.464Z,102119.91
2023-03-02T07:16:27.318Z,102116.84
2023-03-02T07:20:39.579Z,102115.59
2023-03-02T07:24:51.273Z,102104.97
2023-03-02T07:29:02.932Z,102118.31
2023-03-02T07:33:14.573Z,102115.59
2023-03-02T07:37:26.395Z,102120.97
2023-03-02T07:41:38.072Z,102097.94
2023-03-02T07:45:49.647Z,102105.56
2023-03-02T07:50:01.215Z,102102.94
2023-03-02T07:54:13.024Z,102111.19
2023-03-02T07:58:24.679Z,102118.81
2023-03-02T08:02:36.336Z,102116.78
2023-03-02T08:06:48.047Z,102123.50
2023-03-02T08:11:15.018Z,102131.56
2023-03-02T08:15:26.720Z,102125.47
2023-03-02T08:19:38.388Z,102124.09
2023-03-02T08:23:50.696Z,102117.19
2023-03-02T08:28:02.408Z,102110.22
2023-03-02T08:32:14.150Z,102119.44
2023-03-02T08:36:26.033Z,102113.44
2023-03-02T08:40:37.701Z,102109.69
2023-03-02T08:44:49.374Z,102120.88
2023-03-02T08:49:01.135Z,102113.06
2023-03-02T08:53:12.763Z,102115.78
2023-03-02T08:57:24.392Z,102102.22
2023-03-02T09:02:01.534Z,102116.97
2023-03-02T09:06:13.486Z,102109.09
2023-03-02T09:10:25.266Z,102116.31
2023-03-02T09:14:37.072Z,102115.31
2023-03-02T09:18:48.729Z,102107.25
2023-03-02T09:23:00.421Z,102111.78
2023-03-02T09:27:12.043Z,102113.84
2023-03-02T09:31:27.356Z,102112.97
2023-03-02T09:35:40.179Z,102114.94
2023-03-02T09:39:51.955Z,102116.16
2023-03-02T09:44:15.822Z,102125.06
2023-03-02T09:48:39.646Z,102133.09
2023-03-02T09:52:58.992Z,102123.41
2023-03-02T09:57:26.798Z,102129.81
2023-03-02T10:01:43.834Z,102118.28
2023-03-02T10:05:56.467Z,102115.69
2023-03-02T10:10:23.311Z,102112.97
2023-03-02T10:14:45.299Z,102112.47
2023-03-02T10:19:15.762Z,102103.78
2023-03-02T10:23:46.597Z,102112.09
2023-03-02T10:28:21.075Z,102112.50
2023-03-02T10:32:42.004Z,102117.75
2023-03-02T10:36:53.697Z,102119.16
2023-03-02T10:41:10.053Z,102120.78
2023-03-02T10:45:28.385Z,102109.75
2023-03-02T10:49:42.807Z,102109.53
2023-03-02T10:54:11.330Z,102093.00
2023-03-02T10:58:23.834Z,102097.31
2023-03-02T11:02:37.551Z,102111.00
2023-03-02T11:06:49.371Z,102098.69
2023-03-02T11:11:04.104Z,102082.03
2023-03-02T11:15:31.871Z,102091.63
2023-03-02T11:19:43.843Z,102068.19
2023-03-02T11:24:10.903Z,102078.25
2023-03-02T11:28:41.096Z,102073.75
2023-03-02T11:33:04.144Z,102077.59
2023-03-02T11:37:21.116Z,102075.59
2023-03-02T11:41:34.718Z,102061.91
2023-03-02T11:45:51.873Z,102055.00
2023-03-02T11:50:05.821Z,102058.53
2023-03-02T11:54:41.158Z,102057.13
2023-03-02T11:59:04.745Z,102053.28
2023-03-02T12:03:16.364Z,102027.78
2023-03-02T12:07:28.175Z,102033.34
2023-03-02T12:11:41.204Z,102042.22
2023-03-02T12:15:53.061Z,102020.25
2023-03-02T12:20:07.715Z,102020.81
2023-03-02T12:24:29.169Z,102004.69
2023-03-02T12:28:43.989Z,102001.97
2023-03-02T12:33:10.848Z,101994.34
2023-03-02T12:37:37.795Z,102000.31
2023-03-02T12:42:01.506Z,102004.84
2023-03-02T12:46:33.445Z,102000.66
2023-03-02T12:50:47.304Z,101989.81
2023-03-02T12:55:10.055Z,101985.34
2023-03-02T12:59:25.209Z,101985.22
2023-03-02T13:03:45.805Z,101985.56
2023-03-02T13:08:01.088Z,101976.28
2023-03-02T13:12:14.286Z,101973.38
2023-03-02T13:16:28.845Z,101979.63
2023-03-02T13:20:40.735Z,101965.63
2023-03-02T13:25:03.679Z,101968.81
2023-03-02T13:29:23.107Z,101967.34
2023-03-02T13:33:43.688Z,101947.59
2023-03-02T13:38:00.313Z,101968.22
2023-03-02T13:42:26.532Z,101946.00
2023-03-02T13:46:41.047Z,101948.09
2023-03-02T13:50:57.239Z,101954.75
2023-03-02T13:55:13.990Z,101965.31
2023-03-02T13:59:25.819Z,101942.69
2023-03-02T14:03:37.623Z,101919.25
2023-03-02T14:07:49.366Z,101935.44
2023-03-02T14:12:01.155Z,101909.50
2023-03-02T14:16:14.145Z,101940.63
2023-03-02T14:20:25.844Z,101928.78
2023-03-02T14:24:37.488Z,101924.16
2023-03-02T14:28:59.900Z,101930.56
2023-03-02T14:33:17.698Z,101907.13
2023-03-02T14:37:30.252Z,101921.63
2023-03-02T14:41:52.973Z,101917.25
2023-03-02T14:46:05.428Z,101911.19
2023-03-02T14:50:17.361Z,101908.06
2023-03-02T14:54:54.038Z,101912.38
2023-03-02T14:59:05.784Z,101905.53
2023-03-02T15:03:28.226Z,101908.41
2023-03-02T15:07:40.891Z,101908.94
2023-03-02T15:11:52.555Z,101906.63
2023-03-02T15:16:04.377Z,101882.97
2023-03-02T15:20:16.701Z,101898.50
2023-03-02T15:24:31.401Z,101894.53
2023-03-02T15:28:47.122Z,101884.75
2023-03-02T15:32:59.601Z,101890.31
2023-03-02T15:37:11.931Z,101892.72
2023-03-02T15:41:23.652Z,101879.81
2023-03-02T15:45:35.236Z,101890.56
2023-03-02T15:49:46.887Z,101872.31
2023-03-02T15:54:24.639Z,101899.47
2023-03-02T15:58:36.573Z,101883.19
2023-03-02T16:02:49.709Z,101886.81
2023-03-02T16:07:01.565Z,101886.50
2023-03-02T16:11:13.310Z,101887.16
2023-03-02T16:15:25.025Z,101889.59
2023-03-02T16:19:37.759Z,101900.63
2023-03-02T16:23:49.815Z,101899.28
2023-03-02T16:28:03.041Z,101885.16
2023-03-02T16:32:14.812Z,101905.88
2023-03-02T16:36:26.477Z,101898.94
2023-03-02T16:40:40.155Z,101906.16
2023-03-02T16:44:51.901Z,101896.84
2023-03-02T16:49:04.436Z,101921.53
2023-03-02T16:53:16.089Z,101908.00
2023-03-02T16:57:27.805Z,101909.00
2023-03-02T17:01:39.560Z,101934.34
2023-03-02T17:05:51.413Z,101927.81
2023-03-02T17:10:04.879Z,101915.66
2023-03-02T17:14:16.564Z,101947.91
2023-03-02T17:18:29.130Z,101950.69
2023-03-02T17:22:40.914Z,101947.94
2023-03-02T17:26:52.989Z,101944.72
2023-03-02T17:31:05.006Z,101957.94
2023-03-02T17:35:16.819Z,101956.00
2023-03-02T17:39:28.673Z,101973.06
2023-03-02T17:43:41.887Z,101971.44
2023-03-02T17:47:55.156Z,101984.34
2023-03-02T17:52:07.051Z,101978.88
2023-03-02T17:56:22.181Z,101985.22
2023-03-02T18:00:33.868Z,101980.75
2023-03-02T18:04:45.747Z,101993.25
2023-03-02T18:08:57.585Z,102005.56
2023-03-02T18:13:09.290Z,101994.88
2023-03-02T18:17:21.009Z,102019.88
2023-03-02T18:21:32.693Z,102016.66
2023-03-02T18:25:44.369Z,102031.66
2023-03-02T18:29:56.232Z,102026.41
2023-03-02T18:34:07.998Z,102028.00
2023-03-02T18:38:19.690Z,102037.84
2023-03-02T18:42:31.409Z,102038.75
2023-03-02T18:46:43.270Z,102019.34
2023-03-02T18:50:55.620Z,102039.53
2023-03-02T18:55:08.915Z,102052.84
2023-03-02T18:59:20.575Z,102039.56
2023-03-02T19:03:33.406Z,102042.03
2023-03-02T19:07:47.430Z,102045.31
2023-03-02T19:11:59.420Z,102052.09
2023-03-02T19:16:11.373Z,102028.63
2023-03-02T19:20:23.482Z,102050.38
2023-03-02T19:24:35.548Z,102046.50
2023-03-02T19:28:47.239Z,102054.25
2023-03-02T19:32:59.070Z,102043.31
2023-03-02T19:37:10.714Z,102056.31
2023-03-02T19:41:22.993Z,102069.63
2023-03-02T19:45:35.684Z,102050.94
2023-03-02T19:49:48.907Z,102069.72
2023-03-02T19:54:03.089Z,102051.22
2023-03-02T19:58:21.343Z,102073.41
2023-03-02T20:02:35.936Z,102054.88
2023-03-02T20:06:47.703Z,102074.69
2023-03-02T20:10:59.410Z,102072.66
2023-03-02T20:15:12.247Z,102055.69
2023-03-02T20:19:23.901Z,102066.25
2023-03-02T20:23:35.664Z,102054.56
2023-03-02T20:27:49.555Z,102068.53
2023-03-02T20:32:02.560Z,102078.72
2023-03-02T20:36:16.672Z,102075.84
2023-03-02T20:40:29.643Z,102087.75
2023-03-02T20:44:41.420Z,102086.53
2023-03-02T20:48:53.469Z,102086.53
2023-03-02T20:53:05.871Z,102102.03
2023-03-02T20:57:20.475Z,102087.13
2023-03-02T21:01:32.387Z,102093.88
2023-03-02T21:05:44.777Z,102083.13
2023-03-02T21:09:56.417Z,102085.63
2023-03-02T21:14:08.296Z,102101.28
2023-03-02T21:18:20.680Z,102095.19
2023-03-02T21:22:32.385Z,102087.09
2023-03-02T21:26:50.005Z,102099.56
2023-03-02T21:31:01.742Z,102097.19
2023-03-02T21:35:15.562Z,102109.25
2023-03-02T21:39:27.304Z,102092.91
2023-03-02T21:43:39.117Z,102064.72
2023-03-02T21:47:51.223Z,102083.16
2023-03-02T21:52:03.918Z,102083.88
2023-03-02T21:56:22.145Z,102086.09
2023-03-02T22:00:37.114Z,102089.19
2023-03-02T22:04:48.785Z,102079.97
2023-03-02T22:09:01.657Z,102078.56
2023-03-02T22:13:13.213Z,102106.78
2023-03-02T22:17:24.968Z,102077.47
2023-03-02T22:21:38.686Z,102084.06
2023-03-02T22:25:53.710Z,102104.19
2023-03-02T22:30:23.226Z,102108.38
2023-03-02T22:34:43.307Z,102109.91
2023-03-02T22:38:56.925Z,102122.22
2023-03-02T22:43:19.760Z,102120.69
2023-03-02T22:47:32.181Z,102129.44
2023-03-02T22:51:44.858Z,102111.84
2023-03-02T22:56:14.806Z,102111.69
2023-03-02T23:00:35.011Z,102119.81
2023-03-02T23:04:48.728Z,102117.69
2023-03-02T23:09:05.837Z,102093.28
2023-03-02T23:13:19.960Z,102120.91
2023-03-02T23:17:36.860Z,102110.59
2023-03-02T23:21:49.669Z,102119.69
2023-03-02T23:26:01.258Z,102103.06
2023-03-02T23:30:13.776Z,102112.16
2023-03-02T23:34:25.435Z,102122.50
2023-03-02T23:38:37.471Z,102126.97
2023-03-02T23:42:49.646Z,102134.38
2023-03-02T23:47:01.449Z,102125.72
2023-03-02T23:51:13.144Z,102135.09
2023-03-02T23:55:24.708Z,102124.59
2023-03-02T23:59:36.255Z,102134.53
